createdAt,value
2019-05-19T00:01:13.065Z,12.18
2019-05-19T00:03:46.425Z,12.14
2019-05-19T00:06:19.497Z,12.12
2019-05-19T00:08:52.458Z,12.12
2019-05-19T00:11:25.516Z,12.08
2019-05-19T00:13:58.494Z,11.95
2019-05-19T00:16:32.052Z,11.82
2019-05-19T00:19:05.078Z,11.64
2019-05-19T00:21:38.115Z,11.57
2019-05-19T00:24:11.080Z,11.52
2019-05-19T00:26:44.147Z,11.46
2019-05-19T00:29:17.117Z,11.47
2019-05-19T00:31:50.105Z,11.40
2019-05-19T00:34:23.094Z,11.40
2019-05-19T00:36:56.005Z,11.44
2019-05-19T00:39:28.904Z,11.30
2019-05-19T00:42:02.312Z,11.30
2019-05-19T00:44:35.263Z,11.23
2019-05-19T00:47:08.372Z,11.16
2019-05-19T00:49:41.885Z,11.16
2019-05-19T00:52:15.083Z,11.14
2019-05-19T00:54:48.358Z,11.14
2019-05-19T00:57:22.521Z,11.10
2019-05-19T00:59:56.405Z,11.07
2019-05-19T01:02:29.441Z,11.02
2019-05-19T01:05:02.456Z,11.02
2019-05-19T01:07:35.616Z,10.99
2019-05-19T01:10:09.275Z,10.99
2019-05-19T01:12:42.390Z,10.91
2019-05-19T01:15:16.781Z,10.85
2019-05-19T01:17:49.749Z,10.65
2019-05-19T01:20:22.926Z,10.56
2019-05-19T01:22:55.876Z,10.59
2019-05-19T01:25:28.816Z,10.57
2019-05-19T01:28:01.741Z,10.58
2019-05-19T01:30:34.806Z,10.55
2019-05-19T01:33:07.843Z,10.61
2019-05-19T01:35:41.154Z,10.61
2019-05-19T01:38:14.169Z,10.63
2019-05-19T01:40:47.538Z,10.64
2019-05-19T01:43:20.446Z,10.68
2019-05-19T01:45:53.369Z,10.68
2019-05-19T01:48:27.990Z,10.70
2019-05-19T01:51:01.267Z,10.82
2019-05-19T01:53:34.276Z,10.82
2019-05-19T01:56:07.269Z,10.83
2019-05-19T01:58:40.497Z,10.91
2019-05-19T02:01:13.443Z,10.91
2019-05-19T02:03:46.455Z,10.94
2019-05-19T02:06:19.756Z,10.94
2019-05-19T02:08:52.959Z,10.94
2019-05-19T02:11:26.556Z,10.91
2019-05-19T02:13:59.502Z,10.87
2019-05-19T02:16:32.539Z,10.86
2019-05-19T02:19:05.720Z,10.82
2019-05-19T02:21:38.877Z,10.75
2019-05-19T02:24:12.064Z,10.75
2019-05-19T02:26:45.565Z,10.72
2019-05-19T02:29:18.779Z,10.65
2019-05-19T02:31:51.974Z,10.65
2019-05-19T02:34:24.820Z,10.66
2019-05-19T02:36:58.075Z,10.61
2019-05-19T02:39:30.984Z,10.61
2019-05-19T02:42:05.134Z,10.54
2019-05-19T02:44:38.954Z,10.59
2019-05-19T02:47:13.733Z,10.57
2019-05-19T02:49:48.544Z,10.57
2019-05-19T02:52:22.521Z,10.59
2019-05-19T02:54:58.507Z,10.62
2019-05-19T02:57:32.366Z,10.62
2019-05-19T03:00:06.023Z,10.56
2019-05-19T03:02:38.937Z,10.26
2019-05-19T03:05:12.107Z,10.19
2019-05-19T03:07:45.353Z,10.19
2019-05-19T03:10:18.402Z,10.10
2019-05-19T03:12:51.332Z,10.10
2019-05-19T03:15:24.240Z,10.07
2019-05-19T03:17:57.223Z,10.05
2019-05-19T03:20:30.415Z,10.06
2019-05-19T03:23:03.330Z,10.10
2019-05-19T03:25:36.223Z,10.10
2019-05-19T03:28:09.187Z,10.08
2019-05-19T03:30:42.086Z,10.08
2019-05-19T03:33:15.054Z,10.10
2019-05-19T03:35:47.980Z,10.10
2019-05-19T03:38:21.354Z,10.12
2019-05-19T03:40:54.510Z,10.12
2019-05-19T03:43:27.430Z,10.12
2019-05-19T03:46:00.564Z,10.14
2019-05-19T03:48:33.930Z,10.14
2019-05-19T03:51:06.937Z,10.15
2019-05-19T03:53:39.851Z,10.16
2019-05-19T03:56:12.812Z,10.16
2019-05-19T03:58:45.740Z,10.18
2019-05-19T04:01:18.703Z,10.21
2019-05-19T04:03:51.624Z,10.21
2019-05-19T04:06:24.607Z,10.31
2019-05-19T04:08:57.564Z,10.31
2019-05-19T04:11:30.568Z,10.41
2019-05-19T04:14:03.665Z,10.57
2019-05-19T04:16:36.952Z,10.58
2019-05-19T04:19:10.250Z,10.58
2019-05-19T04:21:48.601Z,10.75
2019-05-19T04:24:17.990Z,10.75
2019-05-19T04:26:50.890Z,10.84
2019-05-19T04:29:24.351Z,10.93
2019-05-19T04:31:57.262Z,10.99
2019-05-19T04:34:30.171Z,11.07
2019-05-19T04:37:03.235Z,11.07
2019-05-19T04:39:36.481Z,11.28
2019-05-19T04:42:09.462Z,11.28
2019-05-19T04:44:42.397Z,11.51
2019-05-19T04:47:15.399Z,11.55
2019-05-19T04:49:48.298Z,11.55
2019-05-19T04:52:21.240Z,11.76
2019-05-19T04:54:54.704Z,11.90
2019-05-19T04:57:27.599Z,11.90
2019-05-19T05:00:00.506Z,11.88
2019-05-19T05:02:33.394Z,11.97
2019-05-19T05:05:07.584Z,12.11
2019-05-19T05:07:40.682Z,12.11
2019-05-19T05:10:14.082Z,12.24
2019-05-19T05:12:46.915Z,12.31
2019-05-19T05:15:19.835Z,12.46
2019-05-19T05:17:52.983Z,12.46
2019-05-19T05:20:25.881Z,12.54
2019-05-19T05:22:58.835Z,12.68
2019-05-19T05:25:31.766Z,12.76
2019-05-19T05:28:04.567Z,12.86
2019-05-19T05:30:37.718Z,12.85
2019-05-19T05:33:10.576Z,12.89
2019-05-19T05:35:43.464Z,12.94
2019-05-19T05:38:16.649Z,12.92
2019-05-19T05:40:49.537Z,13.11
2019-05-19T05:43:22.817Z,13.52
2019-05-19T05:45:55.694Z,13.52
2019-05-19T05:48:28.553Z,13.69
2019-05-19T05:51:01.702Z,13.51
2019-05-19T05:53:34.527Z,13.47
2019-05-19T05:56:07.475Z,13.75
2019-05-19T05:58:40.325Z,13.75
2019-05-19T06:01:13.458Z,13.94
2019-05-19T06:03:46.621Z,14.25
2019-05-19T06:06:20.346Z,14.24
2019-05-19T06:08:53.205Z,14.37
2019-05-19T06:11:26.142Z,14.38
2019-05-19T06:13:59.007Z,14.11
2019-05-19T06:16:31.890Z,14.24
2019-05-19T06:19:04.818Z,14.22
2019-05-19T06:21:37.958Z,14.62
2019-05-19T06:24:10.905Z,14.88
2019-05-19T06:26:43.757Z,14.69
2019-05-19T06:29:16.637Z,15.20
2019-05-19T06:31:49.828Z,15.20
2019-05-19T06:34:22.684Z,15.42
2019-05-19T06:36:55.538Z,15.79
2019-05-19T06:39:28.400Z,16.27
2019-05-19T06:42:01.385Z,16.85
2019-05-19T06:44:34.250Z,16.85
2019-05-19T06:47:07.110Z,16.95
2019-05-19T06:49:40.226Z,16.95
2019-05-19T06:52:13.091Z,16.71
2019-05-19T06:54:46.270Z,16.67
2019-05-19T06:57:19.107Z,16.14
2019-05-19T06:59:52.249Z,16.03
2019-05-19T07:02:25.419Z,16.16
2019-05-19T07:04:58.286Z,15.98
2019-05-19T07:07:31.121Z,16.27
2019-05-19T07:10:04.740Z,16.19
2019-05-19T07:12:37.646Z,16.28
2019-05-19T07:15:10.977Z,16.32
2019-05-19T07:17:44.086Z,16.55
2019-05-19T07:20:17.214Z,16.78
2019-05-19T07:22:50.074Z,17.10
2019-05-19T07:25:23.170Z,17.00
2019-05-19T07:27:56.322Z,17.00
2019-05-19T07:30:29.172Z,17.18
2019-05-19T07:33:02.017Z,17.24
2019-05-19T07:35:34.874Z,17.25
2019-05-19T07:38:07.824Z,17.25
2019-05-19T07:40:40.825Z,17.29
2019-05-19T07:43:13.700Z,17.45
2019-05-19T07:45:46.850Z,17.88
2019-05-19T07:48:19.687Z,18.19
2019-05-19T07:50:52.556Z,18.29
2019-05-19T07:53:25.391Z,18.18
2019-05-19T07:55:58.282Z,18.45
2019-05-19T07:58:31.128Z,18.62
2019-05-19T08:01:04.069Z,18.62
2019-05-19T08:03:36.933Z,18.86
2019-05-19T08:06:10.238Z,18.74
2019-05-19T08:08:43.065Z,19.44
2019-05-19T08:11:15.899Z,20.04
2019-05-19T08:13:48.835Z,20.30
2019-05-19T08:16:21.833Z,21.13
2019-05-19T08:18:54.685Z,22.88
2019-05-19T08:21:27.789Z,22.88
2019-05-19T08:24:01.350Z,23.20
2019-05-19T08:26:34.700Z,23.26
2019-05-19T08:29:08.081Z,23.47
2019-05-19T08:31:41.001Z,24.23
2019-05-19T08:34:13.877Z,24.23
2019-05-19T08:36:46.773Z,24.66
2019-05-19T08:39:19.627Z,24.69
2019-05-19T08:41:52.808Z,24.67
2019-05-19T08:44:25.659Z,24.98
2019-05-19T08:46:58.489Z,26.30
2019-05-19T08:49:31.354Z,27.04
2019-05-19T08:52:04.427Z,28.08
2019-05-19T08:54:37.268Z,28.45
2019-05-19T08:57:10.109Z,29.66
2019-05-19T08:59:43.186Z,28.84
2019-05-19T09:02:16.076Z,27.51
2019-05-19T09:04:49.282Z,27.59
2019-05-19T09:07:22.196Z,28.91
2019-05-19T09:09:55.053Z,28.85
2019-05-19T09:12:27.903Z,28.85
2019-05-19T09:15:00.763Z,27.66
2019-05-19T09:17:33.688Z,29.55
2019-05-19T09:20:06.824Z,29.43
2019-05-19T09:22:39.673Z,30.25
2019-05-19T09:25:13.101Z,31.55
2019-05-19T09:27:46.085Z,30.74
2019-05-19T09:30:19.260Z,30.43
2019-05-19T09:32:52.135Z,29.46
2019-05-19T09:35:24.969Z,29.47
2019-05-19T09:37:58.375Z,29.01
2019-05-19T09:40:31.225Z,27.24
2019-05-19T09:43:04.191Z,26.43
2019-05-19T09:45:37.065Z,25.09
2019-05-19T09:48:09.902Z,25.09
2019-05-19T09:50:42.766Z,25.02
2019-05-19T09:53:15.602Z,25.91
2019-05-19T09:55:48.705Z,25.91
2019-05-19T09:58:21.799Z,26.59
2019-05-19T10:00:55.013Z,26.59
2019-05-19T10:03:27.852Z,26.92
2019-05-19T10:06:01.011Z,27.71
2019-05-19T10:08:46.326Z,28.45
2019-05-19T10:12:03.215Z,29.60
2019-05-19T10:14:36.120Z,29.23
2019-05-19T10:17:08.977Z,29.62
2019-05-19T10:19:41.830Z,29.83
2019-05-19T10:22:14.692Z,27.90
2019-05-19T10:25:04.073Z,26.80
2019-05-19T10:27:22.321Z,25.90
2019-05-19T10:29:55.158Z,25.23
2019-05-19T10:32:28.090Z,25.98
2019-05-19T10:35:01.007Z,25.98
2019-05-19T10:37:33.930Z,26.70
2019-05-19T10:40:07.260Z,26.70
2019-05-19T10:42:40.085Z,28.32
2019-05-19T10:45:13.165Z,26.74
2019-05-19T10:47:46.029Z,26.39
2019-05-19T10:50:18.855Z,26.39
2019-05-19T10:52:51.789Z,25.61
2019-05-19T10:55:36.267Z,25.65
2019-05-19T10:57:59.589Z,25.59
2019-05-19T11:00:32.754Z,24.89
2019-05-19T11:03:05.852Z,24.64
2019-05-19T11:05:38.705Z,25.09
2019-05-19T11:08:11.623Z,27.08
2019-05-19T11:10:44.535Z,29.04
2019-05-19T11:13:17.748Z,31.76
2019-05-19T11:15:50.741Z,32.66
2019-05-19T11:18:23.838Z,33.01
2019-05-19T11:20:56.811Z,31.15
2019-05-19T11:23:29.716Z,30.51
2019-05-19T11:26:02.627Z,29.33
2019-05-19T11:28:35.711Z,28.53
2019-05-19T11:31:08.536Z,26.42
2019-05-19T11:33:41.424Z,25.43
2019-05-19T11:36:14.283Z,24.49
2019-05-19T11:38:47.197Z,24.42
2019-05-19T11:41:20.402Z,24.22
2019-05-19T11:43:53.414Z,24.22
2019-05-19T11:46:26.538Z,24.15
2019-05-19T11:48:59.427Z,24.05
2019-05-19T11:51:32.279Z,24.04
2019-05-19T11:54:05.144Z,23.51
2019-05-19T11:56:38.002Z,23.48
2019-05-19T11:59:10.838Z,23.52
2019-05-19T12:01:44.052Z,24.49
2019-05-19T12:04:16.890Z,26.59
2019-05-19T12:06:49.745Z,27.65
2019-05-19T12:09:22.629Z,29.65
2019-05-19T12:11:55.801Z,29.65
2019-05-19T12:14:29.171Z,30.82
2019-05-19T12:17:02.033Z,30.82
2019-05-19T12:19:35.112Z,31.26
2019-05-19T12:22:08.017Z,32.20
2019-05-19T12:24:40.862Z,32.20
2019-05-19T12:27:13.842Z,32.29
2019-05-19T12:29:47.016Z,32.07
2019-05-19T12:32:19.926Z,32.42
2019-05-19T12:34:52.826Z,32.89
2019-05-19T12:37:25.993Z,31.68
2019-05-19T12:39:59.377Z,29.78
2019-05-19T12:42:32.484Z,28.98
2019-05-19T12:45:05.776Z,27.18
2019-05-19T12:47:38.661Z,25.44
2019-05-19T12:50:12.148Z,25.47
2019-05-19T12:52:45.097Z,25.79
2019-05-19T12:55:18.093Z,26.95
2019-05-19T12:57:50.942Z,27.71
2019-05-19T13:00:23.857Z,28.69
2019-05-19T13:02:56.710Z,30.17
2019-05-19T13:05:29.622Z,30.97
2019-05-19T13:08:02.472Z,30.93
2019-05-19T13:10:35.308Z,30.96
2019-05-19T13:13:08.235Z,30.27
2019-05-19T13:15:41.070Z,30.27
2019-05-19T13:18:13.928Z,30.65
2019-05-19T13:20:46.775Z,30.65
2019-05-19T13:23:19.627Z,30.57
2019-05-19T13:25:52.465Z,32.04
2019-05-19T13:28:25.590Z,31.14
2019-05-19T13:30:58.478Z,31.14
2019-05-19T13:33:31.750Z,30.02
2019-05-19T13:36:04.738Z,30.02
2019-05-19T13:38:37.605Z,29.75
2019-05-19T13:41:10.491Z,30.03
2019-05-19T13:43:43.349Z,30.88
2019-05-19T13:46:16.771Z,31.41
2019-05-19T13:48:49.911Z,31.23
2019-05-19T13:51:22.837Z,30.58
2019-05-19T13:53:55.720Z,30.32
2019-05-19T13:56:28.561Z,29.25
2019-05-19T13:59:01.404Z,29.28
2019-05-19T14:01:34.318Z,29.68
2019-05-19T14:04:07.172Z,30.21
2019-05-19T14:06:40.015Z,30.21
2019-05-19T14:09:15.240Z,29.65
2019-05-19T14:11:47.805Z,28.69
2019-05-19T14:14:20.989Z,28.67
2019-05-19T14:16:53.818Z,29.25
2019-05-19T14:19:26.686Z,29.89
2019-05-19T14:21:59.541Z,31.01
2019-05-19T14:24:32.401Z,31.89
2019-05-19T14:27:05.237Z,29.57
2019-05-19T14:29:38.092Z,29.57
2019-05-19T14:32:10.939Z,29.06
2019-05-19T14:34:44.117Z,29.30
2019-05-19T14:37:17.062Z,29.57
2019-05-19T14:39:50.041Z,27.83
2019-05-19T14:42:22.874Z,27.49
2019-05-19T14:44:55.732Z,25.99
2019-05-19T14:47:28.605Z,25.99
2019-05-19T14:50:01.521Z,26.07
2019-05-19T14:52:34.538Z,26.07
2019-05-19T14:55:07.526Z,26.47
2019-05-19T14:57:44.913Z,26.72
2019-05-19T15:00:15.875Z,26.33
2019-05-19T15:02:48.763Z,26.90
2019-05-19T15:05:21.912Z,26.72
2019-05-19T15:07:54.809Z,25.96
2019-05-19T15:10:27.710Z,26.14
2019-05-19T15:13:00.670Z,26.35
2019-05-19T15:15:33.584Z,26.08
2019-05-19T15:18:06.823Z,26.29
2019-05-19T15:20:39.847Z,26.06
2019-05-19T15:23:12.752Z,26.24
2019-05-19T15:25:45.752Z,25.80
2019-05-19T15:28:18.769Z,25.42
2019-05-19T15:30:51.710Z,24.61
2019-05-19T15:33:25.063Z,23.91
2019-05-19T15:35:57.990Z,23.71
2019-05-19T15:38:31.002Z,23.11
2019-05-19T15:41:04.082Z,22.93
2019-05-19T15:43:37.063Z,23.05
2019-05-19T15:46:10.080Z,22.97
2019-05-19T15:48:43.051Z,23.23
2019-05-19T15:51:28.021Z,24.06
2019-05-19T15:53:50.654Z,24.06
2019-05-19T15:56:23.523Z,24.44
2019-05-19T15:58:56.429Z,24.62
2019-05-19T16:01:29.458Z,24.36
2019-05-19T16:04:02.524Z,24.36
2019-05-19T16:06:38.959Z,24.45
2019-05-19T16:09:10.252Z,24.15
2019-05-19T16:11:43.255Z,24.13
2019-05-19T16:14:16.182Z,24.46
2019-05-19T16:16:49.114Z,24.05
2019-05-19T16:19:22.067Z,23.73
2019-05-19T16:21:54.998Z,23.25
2019-05-19T16:24:27.952Z,23.26
2019-05-19T16:27:00.909Z,23.07
2019-05-19T16:29:33.774Z,22.70
2019-05-19T16:32:06.687Z,21.74
2019-05-19T16:34:39.682Z,21.74
2019-05-19T16:37:12.660Z,21.30
2019-05-19T16:39:45.606Z,21.04
2019-05-19T16:42:18.555Z,20.61
2019-05-19T16:44:51.876Z,19.44
2019-05-19T16:47:24.758Z,17.60
2019-05-19T16:49:57.670Z,15.17
2019-05-19T16:52:31.039Z,15.17
2019-05-19T16:55:04.278Z,14.77
2019-05-19T16:57:37.515Z,14.77
2019-05-19T17:00:10.838Z,14.75
2019-05-19T17:02:43.733Z,14.78
2019-05-19T17:05:16.745Z,14.76
2019-05-19T17:07:49.937Z,14.82
2019-05-19T17:10:23.010Z,14.91
2019-05-19T17:12:55.920Z,14.88
2019-05-19T17:15:28.814Z,14.85
2019-05-19T17:18:01.841Z,14.85
2019-05-19T17:20:34.739Z,14.92
2019-05-19T17:23:07.684Z,14.92
2019-05-19T17:25:40.628Z,14.94
2019-05-19T17:28:13.514Z,14.96
2019-05-19T17:30:46.728Z,14.86
2019-05-19T17:33:19.736Z,14.79
2019-05-19T17:35:53.460Z,14.75
2019-05-19T17:38:26.453Z,14.74
2019-05-19T17:40:59.359Z,14.49
2019-05-19T17:43:32.350Z,14.49
2019-05-19T17:46:05.381Z,14.37
2019-05-19T17:48:38.290Z,14.25
2019-05-19T17:51:11.187Z,14.29
2019-05-19T17:53:44.158Z,14.22
2019-05-19T17:56:17.535Z,14.08
2019-05-19T17:58:51.420Z,14.08
2019-05-19T18:01:24.417Z,14.12
2019-05-19T18:03:57.406Z,14.12
2019-05-19T18:06:30.292Z,14.12
2019-05-19T18:09:04.239Z,14.10
2019-05-19T18:11:37.138Z,14.10
2019-05-19T18:14:10.054Z,14.13
2019-05-19T18:16:42.941Z,14.20
2019-05-19T18:19:15.874Z,14.24
2019-05-19T18:21:48.761Z,14.24
2019-05-19T18:24:21.753Z,14.21
2019-05-19T18:26:54.757Z,14.15
2019-05-19T18:29:31.383Z,14.22
2019-05-19T18:32:03.027Z,14.27
2019-05-19T18:34:36.291Z,14.27
2019-05-19T18:37:09.215Z,14.19
2019-05-19T18:39:42.135Z,14.18
2019-05-19T18:42:15.050Z,14.24
2019-05-19T18:44:47.928Z,14.24
2019-05-19T18:47:20.808Z,14.13
2019-05-19T18:49:53.737Z,14.13
2019-05-19T18:52:26.654Z,14.18
2019-05-19T18:54:59.569Z,14.16
2019-05-19T18:57:32.469Z,14.24
2019-05-19T19:00:05.944Z,14.24
2019-05-19T19:02:39.029Z,14.27
2019-05-19T19:05:12.118Z,14.26
2019-05-19T19:07:45.009Z,14.29
2019-05-19T19:10:18.213Z,14.26
2019-05-19T19:12:51.126Z,14.28
2019-05-19T19:15:24.146Z,14.18
2019-05-19T19:17:57.115Z,14.03
2019-05-19T19:20:30.103Z,14.04
2019-05-19T19:23:03.365Z,14.04
2019-05-19T19:25:36.360Z,14.04
2019-05-19T19:28:09.290Z,14.09
2019-05-19T19:30:42.619Z,14.10
2019-05-19T19:33:15.609Z,14.10
2019-05-19T19:35:48.540Z,14.11
2019-05-19T19:38:21.504Z,14.12
2019-05-19T19:40:54.686Z,14.09
2019-05-19T19:43:27.596Z,14.09
2019-05-19T19:46:00.490Z,14.09
2019-05-19T19:48:33.793Z,14.07
2019-05-19T19:51:06.821Z,14.08
2019-05-19T19:53:39.757Z,14.08
2019-05-19T19:56:12.613Z,14.10
2019-05-19T19:58:45.623Z,14.09
2019-05-19T20:01:18.795Z,14.07
2019-05-19T20:03:51.710Z,14.09
2019-05-19T20:06:24.656Z,14.12
2019-05-19T20:08:57.753Z,14.15
2019-05-19T20:11:30.768Z,14.22
2019-05-19T20:14:04.024Z,14.19
2019-05-19T20:16:36.897Z,14.20
2019-05-19T20:19:09.885Z,14.21
2019-05-19T20:21:43.108Z,14.18
2019-05-19T20:24:16.224Z,14.17
2019-05-19T20:26:49.369Z,14.16
2019-05-19T20:29:22.364Z,14.12
2019-05-19T20:31:55.312Z,14.13
2019-05-19T20:34:28.896Z,14.16
2019-05-19T20:37:02.235Z,14.16
2019-05-19T20:39:35.131Z,14.18
2019-05-19T20:42:08.051Z,14.18
2019-05-19T20:44:41.191Z,14.20
2019-05-19T20:47:14.560Z,14.29
2019-05-19T20:49:47.603Z,14.29
2019-05-19T20:52:20.541Z,14.33
2019-05-19T20:54:53.745Z,14.27
2019-05-19T20:57:26.676Z,14.27
2019-05-19T21:00:00.010Z,14.23
2019-05-19T21:02:33.049Z,14.18
2019-05-19T21:05:06.561Z,14.15
2019-05-19T21:07:39.567Z,14.10
2019-05-19T21:10:12.598Z,14.08
2019-05-19T21:12:45.600Z,14.08
2019-05-19T21:15:18.582Z,14.08
2019-05-19T21:17:51.514Z,14.08
2019-05-19T21:20:24.889Z,14.07
2019-05-19T21:22:57.829Z,14.08
2019-05-19T21:25:30.818Z,14.03
2019-05-19T21:28:03.965Z,13.97
2019-05-19T21:30:37.299Z,13.97
2019-05-19T21:33:10.214Z,13.96
2019-05-19T21:35:43.119Z,13.86
2019-05-19T21:38:16.064Z,13.86
2019-05-19T21:40:49.002Z,13.84
2019-05-19T21:43:21.959Z,13.83
2019-05-19T21:45:54.967Z,13.83
2019-05-19T21:48:27.988Z,13.79
2019-05-19T21:51:00.998Z,13.76
2019-05-19T21:53:33.951Z,13.74
2019-05-19T21:56:07.007Z,13.74
2019-05-19T21:58:40.193Z,13.74
2019-05-19T22:01:22.637Z,13.71
2019-05-19T22:03:48.042Z,13.71
2019-05-19T22:06:20.991Z,13.72
2019-05-19T22:08:53.944Z,13.70
2019-05-19T22:11:26.973Z,13.70
2019-05-19T22:13:59.864Z,13.70
2019-05-19T22:16:32.853Z,13.63
2019-05-19T22:19:05.902Z,13.63
2019-05-19T22:21:39.140Z,13.60
2019-05-19T22:24:12.086Z,13.56
2019-05-19T22:26:45.192Z,13.49
2019-05-19T22:29:18.153Z,13.46
2019-05-19T22:31:51.567Z,13.48
2019-05-19T22:34:24.719Z,13.46
2019-05-19T22:36:57.991Z,13.46
2019-05-19T22:39:30.911Z,13.40
2019-05-19T22:42:03.995Z,13.39
2019-05-19T22:44:37.287Z,13.39
2019-05-19T22:47:10.240Z,13.36
2019-05-19T22:49:43.239Z,13.36
2019-05-19T22:52:16.203Z,13.32
2019-05-19T22:54:49.243Z,13.33
2019-05-19T22:57:23.973Z,13.34
2019-05-19T22:59:57.006Z,13.35
2019-05-19T23:02:29.969Z,13.35
2019-05-19T23:05:03.366Z,13.35
2019-05-19T23:07:36.793Z,13.35
2019-05-19T23:10:10.129Z,13.28
2019-05-19T23:12:43.188Z,13.28
2019-05-19T23:15:16.260Z,13.27
2019-05-19T23:17:49.205Z,13.17
2019-05-19T23:20:22.238Z,13.11
2019-05-19T23:22:55.496Z,13.11
2019-05-19T23:25:28.346Z,13.09
2019-05-19T23:28:01.490Z,13.07
2019-05-19T23:30:34.420Z,13.11
2019-05-19T23:33:07.290Z,13.00
2019-05-19T23:35:40.432Z,13.00
2019-05-19T23:38:13.298Z,13.01
2019-05-19T23:40:46.247Z,13.07
2019-05-19T23:43:19.383Z,13.09
2019-05-19T23:45:52.316Z,13.11
2019-05-19T23:48:25.662Z,13.11
2019-05-19T23:50:58.523Z,13.06
2019-05-19T23:53:31.479Z,13.02
2019-05-19T23:56:05.120Z,12.99
2019-05-19T23:58:37.958Z,12.99
